Terminal Aerodrome Forecast
Issued by NWS Bismarck, ND

Home | Current Version | Previous Version | Text Only | Print | Product List | Glossary On
Versions: 1 2 3 4 5 6 7 8 9 10 11 12 13 14 15 16 17 18
000
FTUS43 KBIS 311700
TAFISN
TAF
KISN 311737Z 3118/0118 07015G23KT 3/4SM -SN OVC008
     FM312100 05019KT 1SM -SN OVC009
     FM010000 04019KT 2SM -SN BR OVC015
     FM010400 03011KT P6SM OVC025
     FM011000 04006KT P6SM SCT015 BKN150=

USA.gov is the U.S. government's official web portal to all federal, state and local government web resources and services.